Time;durP1;ratioP1;P1;durP2;ratioP2;P2;SDS_P1;SDS_P2;PMS_P1;PMS_P2;Temp;Humidity;BMP_temperature;BMP_pressure;BME280_temperature;BME280_humidity;BME280_pressure;Samples;Min_cycle;Max_cycle;Signal;HPM_P1;HPM_P2
2022/12/20 05:30:27;;;;;;;14.23;4.28;;;13.40;90.00;;;;;;5877198;23;20047;-81
2022/12/20 05:32:53;;;;;;;14.45;4.35;;;13.40;89.90;;;;;;4970937;28;20046;-81
2022/12/20 05:35:18;;;;;;;14.60;4.68;;;13.40;90.10;;;;;;4972081;28;20467;-81
2022/12/20 05:37:47;;;;;;;6.88;3.58;;;13.50;90.00;;;;;;4976471;28;20383;-81
2022/12/20 05:40:13;;;;;;;10.68;4.28;;;13.40;89.90;;;;;;4975988;28;20073;-81
2022/12/20 05:42:39;;;;;;;11.52;4.75;;;13.40;89.90;;;;;;4959330;28;20494;-81
2022/12/20 05:45:05;;;;;;;10.32;3.58;;;13.40;89.80;;;;;;4976635;28;20026;-81
2022/12/20 05:47:32;;;;;;;10.50;4.60;;;13.40;90.10;;;;;;4976019;28;20513;-81
2022/12/20 05:50:02;;;;;;;9.65;4.72;;;13.50;90.10;;;;;;4959325;28;20034;-81
2022/12/20 05:52:29;;;;;;;13.65;4.35;;;13.40;90.00;;;;;;4958985;28;20054;-81
2022/12/20 05:54:55;;;;;;;9.18;3.88;;;13.50;90.20;;;;;;4975667;28;20039;-81
2022/12/20 05:57:21;;;;;;;11.43;4.30;;;13.50;90.10;;;;;;4956944;28;20459;-81
2022/12/20 05:59:47;;;;;;;8.55;3.58;;;13.50;89.90;;;;;;4957104;28;20475;-80
2022/12/20 06:02:13;;;;;;;10.20;3.55;;;13.50;89.90;;;;;;4955988;28;20085;-81
2022/12/20 06:04:39;;;;;;;6.88;3.85;;;13.40;89.90;;;;;;4970316;28;20029;-81
2022/12/20 06:07:05;;;;;;;11.07;4.10;;;13.50;90.10;;;;;;4990728;28;20023;-81
2022/12/20 06:09:32;;;;;;;6.38;3.63;;;13.50;90.00;;;;;;4963107;28;20038;-83
2022/12/20 06:11:58;;;;;;;16.25;3.65;;;13.50;89.90;;;;;;4993580;28;20018;-83
2022/12/20 06:14:24;;;;;;;11.65;4.22;;;13.50;89.80;;;;;;4999739;28;20134;-78
2022/12/20 06:16:49;;;;;;;12.25;5.10;;;13.60;89.80;;;;;;4984282;28;20070;-79
2022/12/20 06:19:15;;;;;;;14.82;4.35;;;13.50;89.80;;;;;;4980107;28;20039;-83
2022/12/20 06:21:41;;;;;;;10.10;4.22;;;13.50;89.80;;;;;;4957911;28;20054;-84
2022/12/20 06:24:07;;;;;;;8.57;4.15;;;13.60;89.90;;;;;;4979410;28;20375;-79
2022/12/20 06:26:35;;;;;;;8.77;3.90;;;13.60;89.90;;;;;;4979514;28;20019;-80
2022/12/20 06:29:07;;;;;;;10.63;4.50;;;13.60;89.70;;;;;;4980125;28;20027;-81
2022/12/20 06:31:33;;;;;;;9.63;3.78;;;13.60;89.70;;;;;;4961450;28;20155;-82
2022/12/20 06:33:59;;;;;;;6.45;3.47;;;13.60;89.70;;;;;;4960504;28;20038;-83
2022/12/20 06:36:25;;;;;;;7.68;4.22;;;13.60;89.70;;;;;;4983967;28;20018;-82
2022/12/20 06:38:50;;;;;;;6.05;3.45;;;13.60;89.70;;;;;;4969400;28;20031;-82
2022/12/20 06:41:16;;;;;;;9.35;3.97;;;13.60;89.60;;;;;;4943249;29;20031;-82
2022/12/20 06:43:42;;;;;;;6.70;4.13;;;13.70;89.60;;;;;;4960566;29;20027;-82
2022/12/20 06:46:08;;;;;;;12.00;4.13;;;13.70;89.60;;;;;;4960366;29;20642;-82
2022/12/20 06:48:33;;;;;;;9.75;4.40;;;13.70;89.70;;;;;;4973433;28;20441;-82
2022/12/20 06:50:59;;;;;;;13.43;4.13;;;13.60;89.70;;;;;;4974319;28;20030;-81
2022/12/20 06:53:24;;;;;;;8.57;3.88;;;13.60;89.60;;;;;;4957331;29;20019;-83
2022/12/20 06:55:50;;;;;;;8.50;4.53;;;13.70;89.60;;;;;;4973559;28;20034;-81
2022/12/20 06:58:19;;;;;;;8.25;4.30;;;13.70;89.60;;;;;;4981112;28;20432;-82
2022/12/20 07:00:46;;;;;;;7.80;4.10;;;13.60;89.60;;;;;;4997770;28;20026;-82
2022/12/20 07:03:12;;;;;;;8.15;3.75;;;13.70;89.70;;;;;;4975492;28;20034;-82
2022/12/20 07:05:39;;;;;;;7.90;4.00;;;13.60;89.90;;;;;;4961832;28;20073;-82
2022/12/20 07:08:05;;;;;;;7.88;4.47;;;13.70;89.80;;;;;;4961273;28;20038;-82
2022/12/20 07:10:33;;;;;;;7.20;3.53;;;13.60;89.70;;;;;;4950408;28;20029;-82
2022/12/20 07:12:59;;;;;;;6.32;4.07;;;13.70;89.80;;;;;;4998770;28;20034;-82
2022/12/20 07:15:25;;;;;;;8.45;4.50;;;13.70;89.90;;;;;;4998564;28;20023;-82
2022/12/20 07:17:51;;;;;;;9.00;4.55;;;13.70;90.00;;;;;;4971899;28;20062;-83
2022/12/20 07:20:17;;;;;;;11.27;5.00;;;13.70;89.90;;;;;;4979281;28;20034;-82
2022/12/20 07:22:43;;;;;;;8.65;4.70;;;13.60;89.70;;;;;;4978492;28;20031;-81
2022/12/20 07:25:09;;;;;;;9.57;4.10;;;13.70;90.00;;;;;;4978797;28;20033;-80
2022/12/20 07:27:35;;;;;;;9.63;4.45;;;13.70;89.90;;;;;;4978515;28;20055;-82
2022/12/20 07:30:01;;;;;;;12.02;5.13;;;13.70;90.10;;;;;;4979136;28;20115;-81
2022/12/20 07:32:27;;;;;;;10.07;4.88;;;13.70;90.10;;;;;;4978835;28;20163;-81
2022/12/20 07:34:52;;;;;;;9.75;4.50;;;13.70;90.00;;;;;;4965473;28;20081;-79
2022/12/20 07:37:18;;;;;;;12.63;4.60;;;13.70;90.00;;;;;;4942499;29;20027;-79
2022/12/20 07:39:44;;;;;;;10.27;4.53;;;13.70;89.80;;;;;;4942420;29;20038;-78
2022/12/20 07:42:10;;;;;;;12.05;4.75;;;13.70;89.80;;;;;;4958809;28;20090;-78
2022/12/20 07:44:36;;;;;;;7.68;4.57;;;13.70;89.60;;;;;;4959410;29;20442;-79
2022/12/20 07:47:02;;;;;;;11.48;4.70;;;13.70;89.90;;;;;;4959401;29;20031;-78
2022/12/20 07:49:27;;;;;;;6.93;3.95;;;13.60;89.70;;;;;;4959387;29;20019;-78
2022/12/20 07:51:57;;;;;;;9.63;4.25;;;13.60;89.80;;;;;;4959794;28;20031;-78
2022/12/20 07:54:49;;;;;;;20.33;6.20;;;13.70;89.80;;;;;;4959320;29;20031;-78
2022/12/20 07:57:21;;;;;;;6.35;4.25;;;13.60;89.80;;;;;;4951815;28;20098;-78
2022/12/20 07:59:54;;;;;;;10.75;5.13;;;13.60;89.70;;;;;;4965203;28;20031;-79
2022/12/20 08:02:26;;;;;;;13.40;5.78;;;13.60;89.90;;;;;;4960561;28;20525;-78
2022/12/20 08:04:53;;;;;;;10.85;4.60;;;13.60;89.70;;;;;;4960996;28;20027;-78
2022/12/20 08:07:19;;;;;;;8.07;4.20;;;13.70;89.70;;;;;;4960420;28;20071;-78
2022/12/20 08:09:45;;;;;;;7.85;4.63;;;13.60;89.80;;;;;;4960710;28;20027;-78
2022/12/20 08:12:15;;;;;;;10.40;5.10;;;13.60;90.00;;;;;;4995420;28;20046;-78
2022/12/20 08:14:41;;;;;;;9.02;4.90;;;13.60;90.00;;;;;;4991790;28;20030;-78
2022/12/20 08:17:10;;;;;;;11.15;5.40;;;13.60;89.80;;;;;;4978098;28;20109;-78
2022/12/20 08:19:37;;;;;;;11.48;5.90;;;13.60;90.10;;;;;;4959834;28;20537;-78
2022/12/20 08:22:03;;;;;;;13.90;5.65;;;13.60;90.00;;;;;;4963351;28;20031;-78
2022/12/20 08:24:29;;;;;;;9.85;5.65;;;13.60;89.90;;;;;;4977396;28;20041;-78
2022/12/20 08:26:55;;;;;;;12.27;5.63;;;13.60;90.00;;;;;;4977465;28;20508;-78
2022/12/20 08:29:21;;;;;;;11.52;6.97;;;13.60;89.80;;;;;;4974241;28;20070;-78
2022/12/20 08:31:46;;;;;;;9.00;5.75;;;13.50;89.90;;;;;;4960629;28;20051;-78
2022/12/20 08:34:15;;;;;;;7.82;5.47;;;13.60;89.90;;;;;;4977146;28;20030;-77
2022/12/20 08:36:40;;;;;;;12.65;5.75;;;13.60;89.80;;;;;;4957589;28;20026;-78
2022/12/20 08:39:06;;;;;;;10.43;5.65;;;13.60;89.80;;;;;;4977744;28;20027;-78
2022/12/20 08:41:33;;;;;;;13.80;6.57;;;13.60;89.70;;;;;;4964601;28;20030;-78
2022/12/20 08:43:59;;;;;;;20.02;6.43;;;13.60;89.60;;;;;;4977722;28;20030;-78
2022/12/20 08:46:25;;;;;;;13.27;6.00;;;13.50;89.70;;;;;;4977126;28;20414;-78
2022/12/20 08:48:51;;;;;;;12.65;6.07;;;13.60;89.60;;;;;;4977615;28;20062;-78
2022/12/20 08:51:20;;;;;;;12.57;5.78;;;13.60;89.70;;;;;;4977087;28;20031;-77
2022/12/20 08:53:45;;;;;;;11.93;6.53;;;13.60;89.50;;;;;;4960247;28;20356;-81
2022/12/20 08:56:13;;;;;;;13.60;6.68;;;13.60;89.70;;;;;;4975088;28;20089;-78
2022/12/20 08:58:41;;;;;;;17.63;6.93;;;13.50;89.70;;;;;;4959674;28;20041;-78
2022/12/20 09:01:10;;;;;;;13.80;6.60;;;13.50;89.90;;;;;;4971011;28;20032;-80
2022/12/20 09:03:37;;;;;;;12.38;6.65;;;13.50;89.50;;;;;;4968750;28;20073;-78
2022/12/20 09:06:08;;;;;;;16.27;6.90;;;13.50;89.80;;;;;;4968732;28;20027;-77
2022/12/20 09:08:35;;;;;;;16.30;5.90;;;13.50;89.70;;;;;;4967125;28;20054;-78
2022/12/20 09:11:08;;;;;;;17.17;7.25;;;13.50;89.60;;;;;;4951675;28;20162;-77
2022/12/20 09:13:34;;;;;;;14.38;6.30;;;13.50;89.80;;;;;;4971073;28;20023;-77
2022/12/20 09:16:03;;;;;;;16.80;6.95;;;13.50;89.40;;;;;;4967628;28;20042;-78
2022/12/20 09:18:29;;;;;;;14.45;6.03;;;13.50;89.40;;;;;;4970130;28;20030;-78
2022/12/20 09:20:54;;;;;;;16.05;7.05;;;13.50;89.30;;;;;;4969636;28;20046;-77
2022/12/20 09:23:20;;;;;;;19.17;6.03;;;13.40;89.50;;;;;;4967128;28;20574;-77
2022/12/20 09:25:46;;;;;;;16.98;7.03;;;13.40;89.20;;;;;;4973111;28;20160;-78
2022/12/20 09:28:11;;;;;;;19.83;6.97;;;13.30;89.30;;;;;;4968197;28;20020;-77
2022/12/20 09:30:37;;;;;;;17.15;6.63;;;13.40;89.20;;;;;;4961763;28;20069;-78
2022/12/20 09:33:03;;;;;;;22.17;7.10;;;13.40;89.30;;;;;;4968968;28;20058;-78
2022/12/20 09:35:29;;;;;;;21.00;6.35;;;13.40;89.30;;;;;;4967596;28;20058;-77
2022/12/20 09:37:54;;;;;;;14.43;6.30;;;13.30;89.10;;;;;;4971311;28;20031;-77
2022/12/20 09:40:23;;;;;;;14.52;6.15;;;13.30;88.80;;;;;;4970136;28;20134;-78
2022/12/20 09:42:49;;;;;;;14.65;6.18;;;13.30;89.30;;;;;;4967776;28;20034;-77
2022/12/20 09:45:24;;;;;;;19.75;6.88;;;13.30;89.20;;;;;;4966731;28;20026;-78
2022/12/20 09:47:51;;;;;;;13.20;4.63;;;13.30;89.20;;;;;;4972504;28;20065;-78
2022/12/20 09:50:18;;;;;;;15.98;6.28;;;13.30;89.00;;;;;;4971400;28;20029;-78
2022/12/20 09:52:59;;;;;;;18.70;7.00;;;13.20;88.90;;;;;;4951997;28;20495;-77
2022/12/20 09:55:35;;;;;;;16.75;6.82;;;13.30;89.30;;;;;;4968623;28;20046;-78
2022/12/20 09:58:40;;;;;;;17.30;6.43;;;13.30;89.20;;;;;;4949515;28;20085;-78
2022/12/20 10:01:26;;;;;;;15.57;6.15;;;13.20;89.00;;;;;;4968755;28;20508;-79
2022/12/20 10:03:53;;;;;;;14.88;6.70;;;13.20;88.90;;;;;;4956782;28;20446;-78
2022/12/20 10:06:40;;;;;;;16.45;6.57;;;13.20;89.30;;;;;;4947176;28;20054;-78
2022/12/20 10:09:46;;;;;;;21.92;6.90;;;13.20;89.20;;;;;;4972834;28;20037;-78
2022/12/20 10:12:32;;;;;;;15.10;6.30;;;13.10;88.80;;;;;;4878357;29;20129;-79
2022/12/20 10:14:57;;;;;;;17.38;7.45;;;13.10;89.20;;;;;;4877202;29;20029;-78
2022/12/20 10:17:56;;;;;;;22.48;7.85;;;13.20;89.30;;;;;;4934785;28;20066;-79
2022/12/20 10:20:44;;;;;;;11.30;5.50;;;13.10;88.80;;;;;;4955109;28;20027;-79
2022/12/20 10:23:24;;;;;;;15.85;5.60;;;13.10;89.10;;;;;;4972991;28;20034;-78
2022/12/20 10:25:55;;;;;;;10.50;6.07;;;13.10;89.10;;;;;;4973730;28;20045;-78
2022/12/20 10:28:27;;;;;;;9.95;5.40;;;13.10;89.30;;;;;;4972906;28;20399;-78
2022/12/20 10:30:52;;;;;;;11.27;5.05;;;13.10;89.10;;;;;;4965575;28;20141;-78
2022/12/20 10:33:23;;;;;;;9.90;4.25;;;13.10;88.80;;;;;;4957137;28;20031;-78
2022/12/20 10:35:50;;;;;;;11.75;5.25;;;13.10;89.00;;;;;;4974002;28;20026;-78
2022/12/20 10:38:17;;;;;;;11.93;5.43;;;13.00;88.90;;;;;;4957307;28;20031;-78
2022/12/20 10:41:12;;;;;;;12.85;4.90;;;13.00;89.10;;;;;;4966798;28;20276;-79
2022/12/20 10:43:43;;;;;;;9.27;3.88;;;13.10;89.10;;;;;;4962482;28;20570;-79
2022/12/20 10:46:10;;;;;;;11.18;4.70;;;13.20;89.00;;;;;;4974310;28;20056;-79
2022/12/20 10:48:41;;;;;;;10.40;4.45;;;13.10;88.70;;;;;;4956364;28;20057;-79
2022/12/20 10:51:16;;;;;;;12.65;4.88;;;13.10;89.10;;;;;;4975903;28;20061;-78
2022/12/20 10:53:57;;;;;;;11.02;4.85;;;13.10;88.90;;;;;;4968872;28;20065;-79
2022/12/20 10:56:26;;;;;;;11.45;4.95;;;13.20;88.90;;;;;;4955912;28;20063;-79
2022/12/20 10:59:15;;;;;;;11.33;4.93;;;13.10;88.90;;;;;;4977010;28;20034;-78
2022/12/20 11:01:43;;;;;;;14.27;5.10;;;13.20;88.80;;;;;;4977526;28;20380;-78
2022/12/20 11:04:29;;;;;;;8.60;4.80;;;13.10;89.10;;;;;;4951138;28;20022;-79
2022/12/20 11:06:55;;;;;;;11.73;4.88;;;13.20;88.80;;;;;;4969209;28;20030;-79
2022/12/20 11:09:32;;;;;;;10.77;6.35;;;13.20;89.20;;;;;;4955790;28;20510;-80
2022/12/20 11:12:13;;;;;;;15.00;6.38;;;13.10;89.10;;;;;;4975280;28;20101;-80
2022/12/20 11:14:40;;;;;;;9.85;5.88;;;13.20;89.10;;;;;;4977821;28;20023;-79
2022/12/20 11:17:56;;;;;;;17.02;6.00;;;13.30;88.90;;;;;;4963711;28;20023;-80
2022/12/20 11:20:40;;;;;;;10.55;5.97;;;13.20;88.90;;;;;;4923455;28;20044;-80
2022/12/20 11:23:21;;;;;;;12.05;6.40;;;13.30;89.10;;;;;;4971968;28;20026;-78
2022/12/20 11:26:15;;;;;;;11.57;6.30;;;13.30;89.00;;;;;;4965112;28;20039;-78
2022/12/20 11:29:16;;;;;;;12.38;6.10;;;13.20;88.80;;;;;;4969048;28;20011;-78
2022/12/20 11:31:56;;;;;;;10.13;6.13;;;13.20;88.90;;;;;;4976686;28;20047;-80
2022/12/20 11:34:33;;;;;;;12.27;5.97;;;13.20;88.90;;;;;;4960539;28;20027;-80
2022/12/20 11:37:17;;;;;;;13.50;6.20;;;13.20;89.20;;;;;;4977929;28;20031;-80
2022/12/20 11:40:01;;;;;;;14.32;6.25;;;13.30;89.00;;;;;;4960202;28;20019;-80
2022/12/20 11:42:50;;;;;;;13.75;6.18;;;13.20;89.00;;;;;;4975627;28;20031;-80
2022/12/20 11:45:42;;;;;;;11.50;6.55;;;13.20;89.20;;;;;;4928429;28;20043;-80
2022/12/20 11:48:52;;;;;;;15.07;6.95;;;13.30;89.20;;;;;;4977922;28;20031;-80
2022/12/20 11:51:23;;;;;;;16.48;6.70;;;13.30;89.20;;;;;;4939767;28;20070;-80
2022/12/20 11:54:09;;;;;;;13.48;6.20;;;13.30;89.00;;;;;;4957075;28;20023;-80
2022/12/20 11:56:40;;;;;;;12.10;6.22;;;13.30;89.10;;;;;;4977708;28;20027;-80
2022/12/20 11:59:18;;;;;;;13.50;6.18;;;13.30;88.90;;;;;;4976965;28;20031;-80
2022/12/20 12:01:54;;;;;;;15.07;6.05;;;13.30;89.10;;;;;;4976576;28;20814;-80
2022/12/20 12:04:28;;;;;;;12.52;5.80;;;13.30;89.10;;;;;;4968901;28;20642;-80
2022/12/20 12:07:27;;;;;;;11.60;5.88;;;13.30;89.10;;;;;;4966820;28;20052;-80
2022/12/20 12:09:58;;;;;;;15.30;6.13;;;13.30;89.10;;;;;;4972769;28;20031;-81
2022/12/20 12:12:42;;;;;;;9.45;5.32;;;13.30;89.00;;;;;;4983802;28;20088;-81
2022/12/20 12:15:26;;;;;;;16.83;6.88;;;13.40;89.10;;;;;;4966909;28;20213;-81
2022/12/20 12:18:19;;;;;;;15.20;6.00;;;13.40;89.20;;;;;;4976833;28;20030;-81
2022/12/20 12:20:55;;;;;;;12.20;7.03;;;13.40;89.10;;;;;;4977175;28;20023;-81
2022/12/20 12:23:55;;;;;;;10.15;5.95;;;13.40;89.20;;;;;;4976599;28;20042;-81
2022/12/20 12:26:29;;;;;;;13.65;7.10;;;13.40;89.10;;;;;;4978847;28;20034;-81
2022/12/20 12:29:02;;;;;;;10.05;6.75;;;13.40;89.10;;;;;;4975555;28;20058;-81
2022/12/20 12:31:43;;;;;;;7.93;5.60;;;13.50;89.20;;;;;;4977140;28;20062;-81
2022/12/20 12:34:28;;;;;;;7.80;5.63;;;13.50;89.10;;;;;;4968636;28;20399;-81
2022/12/20 12:37:15;;;;;;;9.45;5.40;;;13.50;88.90;;;;;;4967619;28;20038;-81
2022/12/20 12:39:59;;;;;;;10.02;5.40;;;13.60;89.10;;;;;;4977041;28;20034;-81
2022/12/20 12:42:30;;;;;;;10.20;5.47;;;13.50;88.90;;;;;;4976037;28;20025;-81
2022/12/20 12:45:02;;;;;;;15.38;5.60;;;13.50;88.90;;;;;;4976992;28;20502;-81
2022/12/20 12:47:39;;;;;;;10.60;5.97;;;13.60;89.00;;;;;;4974960;28;20027;-81
2022/12/20 12:50:15;;;;;;;6.47;4.85;;;13.50;89.00;;;;;;4946934;28;20027;-81
2022/12/20 12:52:53;;;;;;;8.25;4.78;;;13.50;88.90;;;;;;4975377;28;20451;-81
2022/12/20 12:55:41;;;;;;;8.25;4.30;;;13.60;89.00;;;;;;4958157;28;20054;-81
2022/12/20 12:58:22;;;;;;;5.72;4.38;;;13.50;88.90;;;;;;4975576;28;20114;-84
2022/12/20 13:01:11;;;;;;;7.75;3.97;;;13.60;89.00;;;;;;4962546;28;20081;-80
2022/12/20 13:03:50;;;;;;;5.03;3.30;;;13.60;88.90;;;;;;4971132;28;20368;-86
2022/12/20 13:06:22;;;;;;;8.50;4.53;;;13.60;88.90;;;;;;4958440;28;20030;-86
2022/12/20 13:08:57;;;;;;;6.53;4.25;;;13.60;89.00;;;;;;4975604;28;20501;-86
2022/12/20 13:11:39;;;;;;;7.80;4.85;;;13.70;89.20;;;;;;4958012;28;20026;-86
2022/12/20 13:14:21;;;;;;;10.18;6.35;;;13.70;89.00;;;;;;4948492;28;20072;-84
2022/12/20 13:16:47;;;;;;;20.70;10.50;;;13.70;89.20;;;;;;4954686;28;20030;-84
2022/12/20 13:19:34;;;;;;;14.18;7.43;;;13.80;89.30;;;;;;4971952;28;20105;-84
2022/12/20 13:22:13;;;;;;;11.75;7.07;;;13.80;89.20;;;;;;4973558;28;20021;-84
2022/12/20 13:24:57;;;;;;;15.48;7.30;;;13.80;89.30;;;;;;4949885;28;20122;-84
2022/12/20 13:27:24;;;;;;;8.57;6.00;;;13.90;89.10;;;;;;4972438;28;20394;-83
2022/12/20 13:29:55;;;;;;;9.52;5.90;;;13.90;88.90;;;;;;4972895;28;20904;-84
2022/12/20 13:32:46;;;;;;;10.02;6.20;;;13.90;89.10;;;;;;4972647;28;20042;-85
2022/12/20 13:35:24;;;;;;;9.60;5.75;;;13.90;89.10;;;;;;4951655;28;20037;-83
2022/12/20 13:38:06;;;;;;;11.38;6.80;;;14.00;88.90;;;;;;4951945;28;20058;-83
2022/12/20 13:40:42;;;;;;;12.75;7.45;;;14.00;89.00;;;;;;4952831;28;20034;-84
2022/12/20 13:43:22;;;;;;;8.05;4.55;;;14.00;88.90;;;;;;4970776;28;20027;-84
2022/12/20 13:46:04;;;;;;;4.10;3.22;;;14.00;88.60;;;;;;4971079;28;20525;-83
2022/12/20 13:48:49;;;;;;;5.03;2.28;;;13.90;88.30;;;;;;4966719;28;20529;-83
2022/12/20 13:51:26;;;;;;;2.10;1.88;;;13.80;88.30;;;;;;4971622;28;20023;-85
2022/12/20 13:54:04;;;;;;;4.05;2.40;;;13.70;88.40;;;;;;4971023;28;20390;-85
2022/12/20 13:56:36;;;;;;;3.67;2.30;;;13.70;88.30;;;;;;4972462;28;20046;-84
2022/12/20 13:59:13;;;;;;;2.85;1.88;;;13.60;88.00;;;;;;4957453;28;20552;-83
2022/12/20 14:01:50;;;;;;;5.00;1.67;;;13.60;88.40;;;;;;4953740;28;20031;-83
2022/12/20 14:04:18;;;;;;;2.78;1.67;;;13.60;88.10;;;;;;4967250;28;20026;-83
2022/12/20 14:06:50;;;;;;;2.45;1.92;;;13.50;88.00;;;;;;4954337;28;20081;-83
2022/12/20 14:09:36;;;;;;;4.03;2.92;;;13.50;88.30;;;;;;4968378;28;20469;-84
2022/12/20 14:12:11;;;;;;;2.80;1.77;;;13.50;88.50;;;;;;4950083;28;20034;-86
2022/12/20 14:14:47;;;;;;;2.85;1.90;;;13.50;88.20;;;;;;4965086;28;20042;-86
2022/12/20 14:17:31;;;;;;;2.20;1.75;;;13.50;87.90;;;;;;4966874;28;20560;-84
2022/12/20 14:20:15;;;;;;;2.55;1.83;;;13.50;88.10;;;;;;4965618;28;20422;-81
2022/12/20 14:23:00;;;;;;;2.42;1.77;;;13.40;87.90;;;;;;4945102;28;20021;-83
2022/12/20 14:25:46;;;;;;;2.40;1.65;;;13.40;88.00;;;;;;4969794;28;20038;-84
2022/12/20 14:28:59;;;;;;;2.60;1.90;;;13.30;88.20;;;;;;4966554;28;20777;-83
2022/12/20 14:31:41;;;;;;;6.90;1.80;;;13.30;88.10;;;;;;4948945;28;20055;-83
2022/12/20 14:34:10;;;;;;;4.13;2.35;;;13.30;88.30;;;;;;4949858;28;20032;-84
2022/12/20 14:36:41;;;;;;;2.30;2.00;;;13.30;88.10;;;;;;4969609;28;20042;-83
2022/12/20 14:39:25;;;;;;;3.03;2.42;;;13.20;87.80;;;;;;4970937;28;20031;-84
2022/12/20 14:42:11;;;;;;;4.10;2.33;;;13.20;87.80;;;;;;4972695;28;20188;-83
2022/12/20 14:44:38;;;;;;;2.08;1.58;;;13.20;88.30;;;;;;4966294;28;20031;-84
2022/12/20 14:47:15;;;;;;;2.00;1.42;;;13.20;88.20;;;;;;4942521;28;20024;-83
2022/12/20 14:49:48;;;;;;;2.40;1.30;;;13.20;88.10;;;;;;4950496;28;20513;-83
2022/12/20 14:52:19;;;;;;;1.88;1.08;;;13.20;88.10;;;;;;4963728;28;20034;-83
2022/12/20 14:54:49;;;;;;;2.13;1.33;;;13.20;88.00;;;;;;4968013;28;20038;-83
2022/12/20 14:57:26;;;;;;;2.97;1.50;;;13.20;87.80;;;;;;4944845;28;20170;-83
2022/12/20 15:00:17;;;;;;;2.78;1.38;;;13.20;87.80;;;;;;4967918;28;20113;-83
2022/12/20 15:02:54;;;;;;;2.17;1.10;;;13.20;87.70;;;;;;4962589;28;20043;-83
2022/12/20 15:05:35;;;;;;;1.98;1.00;;;13.20;87.00;;;;;;4974026;28;20521;-83
2022/12/20 15:08:22;;;;;;;3.95;0.95;;;13.20;87.80;;;;;;4957091;28;20022;-84
2022/12/20 15:11:00;;;;;;;2.70;1.48;;;13.20;87.80;;;;;;4974194;28;20038;-85
2022/12/20 15:13:34;;;;;;;1.77;1.05;;;13.10;87.70;;;;;;4974187;28;20018;-83
2022/12/20 15:16:03;;;;;;;1.77;1.13;;;13.10;87.40;;;;;;4958163;28;20054;-84
2022/12/20 15:18:29;;;;;;;3.65;1.40;;;13.00;87.90;;;;;;4971684;28;20421;-83
2022/12/20 15:21:01;;;;;;;2.92;1.30;;;13.00;87.70;;;;;;4966719;28;20043;-84
2022/12/20 15:23:27;;;;;;;2.78;1.00;;;13.00;87.50;;;;;;4969424;28;20031;-83
2022/12/20 15:25:53;;;;;;;2.20;1.60;;;13.00;87.80;;;;;;4955442;28;20027;-83
2022/12/20 15:28:22;;;;;;;3.00;1.48;;;13.00;87.90;;;;;;4974302;28;20098;-83
2022/12/20 15:30:50;;;;;;;2.83;2.07;;;13.00;87.80;;;;;;4973302;28;20039;-83
2022/12/20 15:33:20;;;;;;;4.38;2.05;;;13.00;88.00;;;;;;4967981;28;20050;-83
2022/12/20 15:35:47;;;;;;;6.50;3.42;;;13.00;88.20;;;;;;4974587;28;20113;-84
2022/12/20 15:38:15;;;;;;;5.32;3.33;;;13.00;88.20;;;;;;4974888;28;20030;-83
2022/12/20 15:40:46;;;;;;;3.13;2.67;;;13.00;87.60;;;;;;4971338;28;20058;-83
2022/12/20 15:43:14;;;;;;;2.80;2.22;;;13.00;87.70;;;;;;4972890;28;20018;-83
2022/12/20 15:45:42;;;;;;;5.85;1.88;;;13.00;88.00;;;;;;4948867;28;20062;-83
2022/12/20 15:48:13;;;;;;;2.03;1.42;;;13.00;87.70;;;;;;4972446;28;20100;-83
2022/12/20 15:50:41;;;;;;;3.50;1.40;;;12.90;87.90;;;;;;4955493;28;20114;-83
2022/12/20 15:53:14;;;;;;;3.22;1.50;;;12.90;87.70;;;;;;4974726;28;20023;-83
2022/12/20 15:55:40;;;;;;;1.70;1.30;;;12.90;87.80;;;;;;4966674;28;20057;-83
2022/12/20 15:58:07;;;;;;;2.60;1.40;;;12.80;87.40;;;;;;4971886;28;20028;-87
2022/12/20 16:00:33;;;;;;;2.83;1.55;;;12.80;87.60;;;;;;4974822;28;20034;-84
2022/12/20 16:03:00;;;;;;;2.20;1.50;;;12.80;87.80;;;;;;4973241;28;20034;-84
2022/12/20 16:05:26;;;;;;;6.60;1.80;;;12.80;87.50;;;;;;4951404;28;20031;-84
2022/12/20 16:07:51;;;;;;;3.25;1.42;;;12.80;87.30;;;;;;4974651;28;20050;-83
2022/12/20 16:10:17;;;;;;;4.97;2.20;;;12.80;88.00;;;;;;4957023;28;20031;-83
2022/12/20 16:12:43;;;;;;;2.60;1.48;;;12.80;88.20;;;;;;4956696;28;20402;-81
2022/12/20 16:15:21;;;;;;;6.50;1.65;;;12.70;88.10;;;;;;4974259;28;20109;-84
2022/12/20 16:17:47;;;;;;;4.32;2.67;;;12.70;88.10;;;;;;4950999;28;20054;-81
2022/12/20 16:20:13;;;;;;;5.63;2.80;;;12.70;88.20;;;;;;4956553;28;20390;-85
2022/12/20 16:22:39;;;;;;;7.07;2.80;;;12.70;87.80;;;;;;4971417;28;20574;-84
2022/12/20 16:25:05;;;;;;;7.45;3.70;;;12.80;88.00;;;;;;4955763;28;20035;-86
2022/12/20 16:27:43;;;;;;;;;;;;;;;;;;;;;
2022/12/20 16:30:09;;;;;;;3.38;2.17;;;12.70;87.90;;;;;;4968262;28;20770;-82
2022/12/20 16:32:35;;;;;;;8.32;3.80;;;12.60;88.00;;;;;;4956466;28;20122;-85
2022/12/20 16:35:01;;;;;;;10.25;5.55;;;12.70;88.20;;;;;;4973503;28;20078;-82
2022/12/20 16:37:26;;;;;;;15.13;6.03;;;12.70;87.80;;;;;;4972987;28;20034;-83
2022/12/20 16:39:52;;;;;;;14.20;6.72;;;12.70;88.10;;;;;;4975110;28;20045;-85
2022/12/20 16:42:22;;;;;;;13.57;5.40;;;12.60;87.50;;;;;;4950997;28;20030;-84
2022/12/20 16:44:53;;;;;;;4.38;3.47;;;12.60;87.90;;;;;;4972181;28;20049;-86
2022/12/20 16:47:19;;;;;;;11.15;3.35;;;12.60;88.30;;;;;;4972450;28;20399;-87
2022/12/20 16:49:45;;;;;;;6.15;2.70;;;12.60;88.40;;;;;;4971085;28;20027;-86
2022/12/20 16:52:16;;;;;;;6.85;3.67;;;12.60;88.30;;;;;;4974117;28;20034;-85
2022/12/20 16:54:42;;;;;;;9.82;4.97;;;12.60;88.30;;;;;;4971350;28;20038;-86
2022/12/20 16:57:09;;;;;;;12.05;4.35;;;12.60;88.40;;;;;;4959011;28;20023;-86
2022/12/20 16:59:34;;;;;;;13.00;4.13;;;12.60;88.50;;;;;;4972386;28;20574;-87
2022/12/20 17:02:12;;;;;;;7.25;4.18;;;12.60;88.50;;;;;;4971995;28;20026;-85
2022/12/20 17:04:37;;;;;;;37.30;17.30;;;12.50;88.40;;;;;;4952626;28;20030;-87
2022/12/20 17:07:03;;;;;;;15.98;9.63;;;12.50;88.50;;;;;;4971171;28;20463;-86
2022/12/20 17:09:29;;;;;;;16.52;8.88;;;12.50;88.80;;;;;;4953951;28;20030;-83
2022/12/20 17:11:54;;;;;;;11.23;6.13;;;12.50;88.50;;;;;;4969825;28;20122;-84
2022/12/20 17:14:20;;;;;;;20.27;12.07;;;12.50;88.40;;;;;;4954383;28;20054;-85
2022/12/20 17:16:46;;;;;;;18.05;12.13;;;12.50;88.40;;;;;;4966200;28;20035;-87
2022/12/20 17:19:12;;;;;;;17.08;11.23;;;12.50;88.60;;;;;;4950032;28;20035;-84
2022/12/20 17:21:42;;;;;;;12.85;8.65;;;12.50;88.70;;;;;;4956044;28;20508;-86
2022/12/20 17:24:19;;;;;;;11.77;7.00;;;12.50;88.80;;;;;;4956794;28;20521;-86
2022/12/20 17:26:45;;;;;;;15.50;7.18;;;12.50;88.30;;;;;;4973537;28;20030;-86
2022/12/20 17:29:11;;;;;;;17.40;10.15;;;12.50;88.50;;;;;;4948699;28;20097;-86
2022/12/20 17:31:39;;;;;;;15.50;7.82;;;12.50;88.30;;;;;;4956769;28;20050;-86
2022/12/20 17:34:17;;;;;;;10.52;6.70;;;12.50;88.70;;;;;;4956254;28;20629;-84
2022/12/20 17:36:44;;;;;;;12.80;6.35;;;12.40;88.40;;;;;;4972718;28;20038;-84
2022/12/20 17:39:09;;;;;;;17.38;8.27;;;12.30;88.50;;;;;;4950634;28;20039;-84
2022/12/20 17:41:48;;;;;;;;;;;;;;;;;;;;;
2022/12/20 17:44:19;;;;;;;13.10;8.23;;;12.30;88.80;;;;;;4972231;28;20034;-83
2022/12/20 17:46:45;;;;;;;12.05;7.43;;;12.30;89.00;;;;;;4971685;28;20058;-84
2022/12/20 17:49:11;;;;;;;12.60;7.50;;;12.30;89.10;;;;;;4956239;28;20034;-85
2022/12/20 17:51:36;;;;;;;14.35;7.90;;;12.20;88.40;;;;;;4970596;28;20027;-80
2022/12/20 17:54:02;;;;;;;21.48;8.10;;;12.20;88.70;;;;;;4970207;28;20023;-83
2022/12/20 17:56:36;;;;;;;20.40;8.30;;;12.20;88.40;;;;;;4968445;28;20057;-81
2022/12/20 17:59:11;;;;;;;20.15;8.27;;;12.10;89.00;;;;;;4950293;28;20765;-83
2022/12/20 18:01:37;;;;;;;14.23;7.80;;;12.10;88.90;;;;;;4976338;28;20022;-84
2022/12/20 18:04:12;;;;;;;17.30;7.15;;;12.10;89.00;;;;;;4960188;28;20033;-83
2022/12/20 18:06:39;;;;;;;10.88;7.53;;;12.00;89.00;;;;;;4976284;28;20090;-79
2022/12/20 18:09:10;;;;;;;21.35;13.05;;;12.00;88.90;;;;;;4975029;28;20081;-80
2022/12/20 18:11:36;;;;;;;24.17;12.68;;;12.00;88.90;;;;;;4971526;28;20019;-79
2022/12/20 18:14:02;;;;;;;49.63;22.15;;;12.00;88.60;;;;;;4977104;28;20038;-79
2022/12/20 18:16:30;;;;;;;28.75;15.05;;;12.00;88.70;;;;;;4975152;28;20517;-77
2022/12/20 18:18:56;;;;;;;42.85;18.38;;;11.80;87.20;;;;;;4973573;28;20053;-84
2022/12/20 18:21:43;;;;;;;47.90;21.65;;;11.90;88.50;;;;;;4959839;28;20489;-82
2022/12/20 18:24:14;;;;;;;40.55;18.30;;;11.90;88.70;;;;;;4969721;28;20027;-77
2022/12/20 18:26:40;;;;;;;30.02;14.73;;;11.80;88.80;;;;;;4976274;28;20057;-78
2022/12/20 18:29:06;;;;;;;22.10;14.05;;;11.90;88.90;;;;;;4977183;28;20113;-78
2022/12/20 18:31:33;;;;;;;25.52;14.85;;;11.90;88.90;;;;;;4973339;28;20079;-80
2022/12/20 18:34:00;;;;;;;23.98;13.30;;;11.90;89.00;;;;;;4957072;28;20027;-79
2022/12/20 18:36:30;;;;;;;21.38;11.88;;;11.90;88.60;;;;;;4967591;28;20031;-77
2022/12/20 18:39:09;;;;;;;20.10;11.98;;;11.90;89.00;;;;;;4976899;28;20081;-84